CZ-0039 weather

Municipal Hospital Heliport
Litoměřice, Ústí nad Labem Region, Czechia

Public forecast

Using degrees Celsius for public forecast. Weather courtesy of forecast.io.

METAR (pilot weather report)

Closest report is Vodochody Airport, 21.7 nm (40.3 km) SSE. Retrieved 2019/03/22 07:00 UTC (46 minutes ago):

LKVO 220700Z VRB01KT CAVOK 07/03 Q1033

TAF (pilot weather forecast)

Forecast is more than 12 hours old.

Closest forecast is Václav Havel Airport Prague, 26.8 nm (49.7 km) S. Retrieved 2019/03/21 18:06 UTC (14 hours ago):

TAF LKPR 211700Z 2118/2300 VRB02KT CAVOK BECMG 2210/2213 07007KT